Time;durP1;ratioP1;P1;durP2;ratioP2;P2;SDS_P1;SDS_P2;PMS_P1;PMS_P2;Temp;Humidity;BMP_temperature;BMP_pressure;BME280_temperature;BME280_humidity;BME280_pressure;Samples;Min_cycle;Max_cycle;Signal;HPM_P1;HPM_P2
2022/06/14 11:49:17;;;;;;;0.65;0.30;;;23.10;55.20;;;22.40;38.09;100527.03;9821500;29;100046;-88
2022/06/14 11:54:26;;;;;;;0.60;0.43;;;23.30;54.50;;;22.53;38.10;100510.50;9811167;29;97597;-90
2022/06/14 12:00:11;;;;;;;1.45;0.65;;;23.40;55.10;;;22.58;36.53;100502.50;9812019;29;98395;-89
2022/06/14 12:06:11;;;;;;;0.35;0.30;;;23.40;53.50;;;23.01;37.21;100495.78;9772676;29;96707;-89
2022/06/14 12:11:24;;;;;;;0.20;0.20;;;23.70;54.80;;;23.41;35.57;100497.59;9804798;29;97464;-89
2022/06/14 12:16:43;;;;;;;0.13;0.10;;;24.20;52.30;;;23.52;35.28;100488.56;9794541;29;96662;-89
2022/06/14 12:22:36;;;;;;;0.45;0.35;;;24.40;51.80;;;23.47;35.46;100486.56;9824723;29;97207;-89
2022/06/14 12:27:43;;;;;;;0.65;0.32;;;24.40;52.30;;;23.51;34.05;100486.91;9813742;29;97336;-89
2022/06/14 12:33:17;;;;;;;0.25;0.20;;;24.40;48.70;;;23.49;34.04;100489.03;9802270;29;97282;-88
2022/06/14 12:38:28;;;;;;;0.80;0.45;;;24.40;51.20;;;23.64;34.76;100466.81;9807117;29;97035;-89
2022/06/14 12:44:03;;;;;;;0.95;0.47;;;24.50;51.30;;;24.06;34.93;100483.44;9789943;29;96721;-89
2022/06/14 12:49:31;;;;;;;1.63;0.30;;;25.00;51.70;;;23.82;33.62;100476.56;9817846;29;96967;-92
2022/06/14 12:55:20;;;;;;;1.95;0.30;;;24.90;49.80;;;23.66;34.34;100481.75;9784073;29;96751;-88
2022/06/14 13:00:59;;;;;;;0.55;0.40;;;24.60;49.70;;;23.47;35.80;100486.56;9803171;29;98416;-92
2022/06/14 13:07:03;;;;;;;1.02;0.50;;;24.40;52.50;;;23.44;36.62;100481.63;9809324;29;96770;-90
2022/06/14 13:12:39;;;;;;;0.17;0.15;;;24.30;53.40;;;23.76;36.02;100465.63;9811334;29;97461;-90
2022/06/14 13:18:06;;;;;;;1.42;0.75;;;24.50;52.00;;;24.18;35.94;100465.16;9814758;29;96764;-90
2022/06/14 13:23:18;;;;;;;1.20;0.45;;;24.90;53.10;;;24.23;34.21;100467.09;9828277;29;97321;-91
2022/06/14 13:28:39;;;;;;;0.63;0.38;;;25.10;50.70;;;23.80;35.33;100451.56;9790179;29;96634;-89
2022/06/14 13:34:00;;;;;;;0.43;0.35;;;24.70;51.90;;;23.16;36.56;100457.31;9820334;29;96681;-88
2022/06/14 13:40:10;;;;;;;0.43;0.28;;;24.10;53.30;;;22.74;37.13;100473.03;9801679;29;97992;-89
2022/06/14 13:45:41;;;;;;;0.82;0.50;;;23.70;53.20;;;23.12;37.51;100451.53;9802008;29;96888;-88
2022/06/14 13:51:19;;;;;;;0.10;0.10;;;23.80;53.90;;;23.48;36.28;100444.00;9812009;29;96664;-89
2022/06/14 13:56:35;;;;;;;0.20;0.20;;;24.30;52.60;;;23.64;35.91;100431.53;9811815;29;96600;-89
2022/06/14 14:02:10;;;;;;;0.85;0.30;;;24.40;53.20;;;23.39;35.63;100437.31;9808841;29;96702;-90
2022/06/14 14:07:25;;;;;;;0.28;0.28;;;24.30;52.30;;;22.91;36.72;100444.09;9802246;29;96832;-89
2022/06/14 14:12:43;;;;;;;0.32;0.20;;;23.80;53.20;;;23.05;36.35;100439.22;9819609;29;97513;-89
2022/06/14 14:17:58;;;;;;;0.43;0.30;;;23.80;52.00;;;22.89;35.86;100440.81;9808691;29;97428;-89
2022/06/14 14:23:25;;;;;;;0.40;0.30;;;23.70;51.60;;;22.69;37.12;100435.81;9803537;29;96936;-91
2022/06/14 14:28:50;;;;;;;1.70;0.30;;;23.50;53.10;;;22.88;37.68;100433.75;9819796;29;96656;-90
2022/06/14 14:34:12;;;;;;;0.40;0.30;;;23.60;54.00;;;23.27;36.27;100431.16;9820069;29;98430;-89
2022/06/14 14:39:30;;;;;;;0.20;0.15;;;24.00;52.40;;;23.10;35.07;100436.59;9812067;29;96686;-91
2022/06/14 14:44:35;;;;;;;0.88;0.10;;;23.90;50.90;;;22.89;35.33;100419.94;9812271;29;96619;-89
2022/06/14 14:49:56;;;;;;;0.00;0.00;;;23.70;51.30;;;22.95;34.11;100426.28;9812941;29;96732;-90
2022/06/14 14:55:44;;;;;;;0.85;0.35;;;23.70;49.90;;;23.17;34.79;100421.00;9813876;29;96696;-91
2022/06/14 15:07:25;;;;;;;0.60;0.20;;;24.00;51.90;;;23.44;35.00;100415.72;9820198;29;98539;-89
2022/06/14 15:12:47;;;;;;;3.80;0.30;;;24.20;50.30;;;23.20;34.30;100415.88;9798196;29;97152;-89
2022/06/14 15:23:47;;;;;;;0.10;0.10;;;24.00;50.30;;;23.48;34.54;100406.03;9810053;29;97041;-90
2022/06/14 15:28:59;;;;;;;0.00;0.00;;;24.10;49.70;;;23.60;33.30;100408.66;9793912;29;97716;-90
2022/06/14 15:34:02;;;;;;;0.35;0.20;;;24.30;48.50;;;23.61;33.48;100405.69;9806368;29;96780;-89
2022/06/14 15:39:19;;;;;;;0.65;0.50;;;24.30;49.40;;;23.57;32.98;100409.97;9802202;29;96658;-90
2022/06/14 15:44:31;;;;;;;0.43;0.20;;;24.30;49.10;;;23.56;33.23;100397.47;9850790;29;96553;-89
2022/06/14 15:49:47;;;;;;;0.10;0.10;;;24.30;48.70;;;23.74;32.78;100394.50;9808304;29;96620;-89
2022/06/14 15:55:00;;;;;;;0.13;0.10;;;24.40;47.60;;;23.78;32.39;100405.69;9822439;29;96995;-89
2022/06/14 16:00:47;;;;;;;0.20;0.13;;;24.50;47.50;;;23.57;32.25;100396.41;9828031;29;96747;-89
2022/06/14 16:06:01;;;;;;;0.10;0.08;;;24.30;47.90;;;23.46;32.41;100394.63;9805714;29;97041;-85
2022/06/14 16:11:13;;;;;;;0.63;0.45;;;24.20;47.70;;;23.34;31.92;100396.59;9821937;29;96676;-86
2022/06/14 16:16:36;;;;;;;0.10;0.10;;;24.10;47.20;;;23.34;32.64;100392.00;9803307;29;96906;-86
2022/06/14 16:21:49;;;;;;;0.10;0.10;;;24.10;48.20;;;23.30;32.09;100387.31;9822642;29;98416;-85
2022/06/14 16:26:55;;;;;;;0.10;0.10;;;24.00;47.80;;;23.20;31.98;100388.78;9800231;29;96546;-85
2022/06/14 16:32:19;;;;;;;1.13;0.30;;;23.90;47.10;;;23.12;32.58;100389.19;9803827;29;96465;-85
2022/06/14 16:37:48;;;;;;;0.28;0.28;;;23.90;48.40;;;22.95;32.71;100385.63;9823920;29;96658;-85
2022/06/14 16:43:23;;;;;;;0.00;0.00;;;23.70;48.40;;;22.93;33.09;100393.19;9816531;29;96668;-85
2022/06/14 16:48:44;;;;;;;0.17;0.13;;;23.60;48.70;;;22.79;33.68;100386.41;9801802;29;97324;-85
2022/06/14 16:53:57;;;;;;;0.20;0.15;;;23.50;49.20;;;22.79;33.80;100386.41;9810446;29;96755;-85
2022/06/14 16:59:29;;;;;;;0.15;0.10;;;23.50;49.50;;;22.68;33.65;100383.53;9826885;29;96683;-86
2022/06/14 17:04:50;;;;;;;0.10;0.10;;;23.40;48.70;;;22.63;33.62;100377.19;9818050;29;96639;-85
2022/06/14 17:10:29;;;;;;;0.75;0.43;;;23.40;49.70;;;22.58;34.21;100380.63;9825288;29;97523;-85
2022/06/14 17:15:45;;;;;;;0.10;0.10;;;23.40;49.80;;;22.54;33.97;100394.88;9820317;29;97868;-85
2022/06/14 17:21:14;;;;;;;0.30;0.10;;;23.30;49.20;;;22.38;34.68;100385.66;9795413;29;96477;-86
2022/06/14 17:32:16;;;;;;;0.20;0.20;;;23.10;50.50;;;22.13;35.91;100394.91;9819049;29;98218;-87
2022/06/14 17:37:34;;;;;;;0.40;0.22;;;23.10;51.20;;;22.05;36.46;100397.13;9793881;29;96823;-87
2022/06/14 17:42:46;;;;;;;0.50;0.20;;;23.00;51.90;;;21.79;36.13;100409.28;9801095;29;96744;-87
2022/06/14 17:47:55;;;;;;;0.10;0.10;;;22.80;51.60;;;21.49;36.63;100401.28;9803464;29;96581;-88
2022/06/14 17:53:26;;;;;;;0.20;0.20;;;22.50;52.80;;;21.25;37.00;100409.34;9803605;29;98353;-88
2022/06/14 17:58:53;;;;;;;0.25;0.15;;;22.20;52.10;;;21.08;38.27;100411.91;9821400;29;98228;-83
2022/06/14 18:04:17;;;;;;;0.20;0.20;;;22.10;53.70;;;20.91;38.69;100410.91;9798352;29;97016;-84
2022/06/14 18:09:45;;;;;;;0.40;0.30;;;22.00;53.70;;;20.72;38.98;100422.81;9800860;29;96881;-84
2022/06/14 18:14:54;;;;;;;0.70;0.30;;;21.90;54.10;;;20.51;39.54;100422.28;9811918;29;97160;-84
2022/06/14 18:25:53;;;;;;;0.10;0.10;;;21.50;55.10;;;20.11;40.80;100419.19;9803142;29;98435;-85
2022/06/14 18:31:01;;;;;;;2.58;0.73;;;21.30;55.50;;;19.92;41.16;100421.06;9807543;29;99021;-89
2022/06/14 18:36:12;;;;;;;0.55;0.38;;;21.10;55.90;;;19.70;41.83;100430.63;9809386;29;96728;-90
2022/06/14 18:41:39;;;;;;;0.20;0.20;;;20.90;57.00;;;19.47;43.13;100436.59;9814660;29;97078;-90
2022/06/14 18:46:53;;;;;;;0.98;0.50;;;20.70;58.00;;;19.24;43.80;100439.88;9797423;29;100485;-90
2022/06/14 18:52:35;;;;;;;1.17;0.22;;;20.50;58.70;;;18.95;44.15;100441.31;9808877;29;96970;-89
2022/06/14 18:57:48;;;;;;;0.20;0.20;;;20.20;58.70;;;18.64;44.91;100450.16;9797599;29;96827;-90
2022/06/14 19:03:15;;;;;;;0.50;0.20;;;19.90;59.50;;;18.36;45.56;100447.81;9801612;29;96781;-89
2022/06/14 19:08:30;;;;;;;0.20;0.15;;;19.60;60.00;;;18.16;45.86;100448.69;9811282;29;96713;-89
2022/06/14 19:13:35;;;;;;;0.10;0.10;;;19.40;60.50;;;18.01;45.95;100447.31;9796105;29;97314;-89
2022/06/14 19:19:06;;;;;;;0.15;0.15;;;19.20;60.90;;;17.84;46.55;100453.09;9810150;29;97212;-89
2022/06/14 19:24:30;;;;;;;0.00;0.00;;;19.00;61.50;;;17.74;46.86;100462.63;9825420;29;96673;-89
2022/06/14 19:30:00;;;;;;;0.00;0.00;;;18.80;61.80;;;17.60;47.19;100464.47;9826781;29;98918;-89
2022/06/14 19:35:27;;;;;;;0.35;0.32;;;18.70;62.70;;;17.47;47.69;100467.16;9827672;29;96923;-89
2022/06/14 19:40:54;;;;;;;0.10;0.10;;;18.50;63.40;;;17.33;48.10;100477.91;9820264;29;98188;-90
2022/06/14 19:46:20;;;;;;;0.20;0.10;;;18.40;63.20;;;17.24;48.56;100481.81;9824775;29;96681;-89
2022/06/14 19:51:30;;;;;;;0.10;0.05;;;18.30;63.90;;;17.11;48.64;100474.56;9799967;29;96852;-90
2022/06/14 19:56:36;;;;;;;0.28;0.20;;;18.20;63.90;;;17.00;49.57;100477.00;9810092;29;96748;-89
2022/06/14 20:01:47;;;;;;;0.25;0.20;;;18.10;65.20;;;16.87;49.99;100475.13;9818192;29;97836;-89
2022/06/14 20:07:11;;;;;;;0.30;0.30;;;18.00;65.50;;;16.76;50.06;100473.84;9822880;29;97485;-89
2022/06/14 20:12:21;;;;;;;0.35;0.28;;;17.90;65.10;;;16.77;49.66;100474.66;9826110;29;97291;-89
2022/06/14 20:18:01;;;;;;;0.35;0.15;;;17.80;64.90;;;16.84;49.41;100472.84;9807563;29;97337;-91
2022/06/14 20:23:07;;;;;;;0.10;0.10;;;17.90;64.10;;;16.93;49.07;100473.50;9814121;29;96721;-89
2022/06/14 20:28:15;;;;;;;0.57;0.20;;;18.00;63.90;;;17.00;49.60;100477.00;9793643;29;96692;-89
2022/06/14 20:33:25;;;;;;;0.13;0.13;;;18.10;64.30;;;17.02;49.82;100483.00;9811086;29;96666;-90
2022/06/14 20:38:50;;;;;;;2.53;1.30;;;18.10;64.60;;;16.96;50.45;100478.44;9802538;29;97195;-89
2022/06/14 20:43:59;;;;;;;0.30;0.13;;;18.20;65.40;;;16.88;50.39;100492.06;9815127;29;96690;-89
2022/06/14 20:49:12;;;;;;;0.15;0.10;;;18.10;64.60;;;16.80;50.79;100487.69;9788234;29;96951;-88
2022/06/14 20:54:15;;;;;;;0.20;0.20;;;18.10;65.70;;;16.69;51.15;100489.06;9788625;29;97173;-89
2022/06/14 20:59:19;;;;;;;0.52;0.30;;;18.00;65.50;;;16.60;50.91;100492.94;9799261;29;98271;-89
2022/06/14 21:04:22;;;;;;;0.10;0.10;;;17.90;65.20;;;16.52;51.29;100480.53;9807038;29;96522;-89
2022/06/14 21:09:28;;;;;;;0.05;0.00;;;17.80;65.60;;;16.48;51.17;100497.22;9792477;29;98422;-89
2022/06/14 21:14:45;;;;;;;0.10;0.10;;;17.70;65.90;;;16.42;51.36;100498.84;9797842;29;97328;-89
2022/06/14 21:19:49;;;;;;;0.10;0.10;;;17.70;65.80;;;16.40;51.23;100508.13;9811096;29;97431;-88
2022/06/14 21:24:58;;;;;;;0.00;0.00;;;17.70;65.40;;;16.39;51.41;100503.78;9780465;29;96524;-88
2022/06/14 21:30:10;;;;;;;0.40;0.20;;;17.60;65.70;;;16.40;51.39;100514.31;9829721;29;96788;-89
2022/06/14 21:35:19;;;;;;;0.10;0.10;;;17.70;65.70;;;16.38;51.75;100518.22;9819879;29;96947;-90
2022/06/14 21:40:28;;;;;;;0.70;0.20;;;17.70;65.90;;;16.31;51.69;100529.75;9794782;29;98297;-89
2022/06/14 21:45:36;;;;;;;0.00;0.00;;;17.60;65.90;;;16.25;52.06;100524.31;9819240;29;96586;-89
2022/06/14 21:50:45;;;;;;;0.17;0.10;;;17.60;65.70;;;16.19;51.50;100539.38;9813356;29;96832;-89
2022/06/14 21:56:02;;;;;;;0.10;0.10;;;17.40;65.50;;;16.29;50.39;100534.47;9824083;29;96640;-89
2022/06/14 22:01:17;;;;;;;0.10;0.10;;;17.50;64.60;;;16.41;49.96;100528.56;9813577;29;96679;-89
2022/06/14 22:06:23;;;;;;;0.10;0.10;;;17.50;64.40;;;16.56;48.55;100527.41;9823327;29;97329;-88
2022/06/14 22:11:28;;;;;;;0.05;0.05;;;17.70;63.30;;;16.64;48.57;100523.72;9812413;29;96954;-88
2022/06/14 22:16:31;;;;;;;0.10;0.10;;;17.70;63.10;;;16.69;47.76;100533.88;9799673;29;97462;-88
2022/06/14 22:21:35;;;;;;;0.22;0.15;;;17.80;62.70;;;16.72;47.55;100530.78;9791100;29;98612;-88
2022/06/14 22:26:38;;;;;;;0.00;0.00;;;17.80;62.30;;;16.74;47.06;100526.06;9786626;29;96551;-88
2022/06/14 22:31:43;;;;;;;0.30;0.20;;;17.80;61.50;;;16.73;48.12;100538.66;9806907;29;97629;-88
2022/06/14 22:36:45;;;;;;;0.20;0.10;;;17.90;63.50;;;16.71;48.64;100539.88;9803443;29;98536;-89
2022/06/14 22:41:49;;;;;;;0.30;0.22;;;17.90;63.20;;;16.63;48.91;100548.91;9788275;29;96661;-89
2022/06/14 22:46:52;;;;;;;0.20;0.20;;;17.90;63.40;;;16.53;49.69;100543.06;9804995;29;96710;-89
2022/06/14 22:51:59;;;;;;;0.63;0.38;;;17.80;64.20;;;16.34;50.19;100547.28;9827984;29;96663;-89
2022/06/14 22:57:09;;;;;;;0.20;0.15;;;17.70;64.60;;;16.17;51.05;100544.09;9813358;29;96521;-89
2022/06/14 23:02:12;;;;;;;;;;;17.50;65.10;;;16.00;51.88;100545.41;9814298;29;96722;-89
2022/06/14 23:07:17;;;;;;;0.30;0.20;;;17.30;66.70;;;15.75;52.61;100539.63;9801389;29;98081;-88
2022/06/14 23:12:20;;;;;;;0.30;0.20;;;17.10;67.70;;;15.55;52.73;100538.59;9780812;29;96621;-88
2022/06/14 23:17:23;;;;;;;0.30;0.20;;;16.90;68.00;;;15.43;53.05;100551.69;9824513;29;98306;-87
2022/06/14 23:22:26;;;;;;;0.15;0.10;;;16.70;67.80;;;15.32;53.43;100544.16;9790413;29;96766;-87
2022/06/14 23:27:29;;;;;;;0.35;0.20;;;16.60;68.50;;;15.25;53.40;100550.25;9791848;29;96665;-88
2022/06/14 23:32:32;;;;;;;0.10;0.10;;;16.50;68.40;;;15.18;54.03;100546.69;9811409;29;97441;-88
2022/06/14 23:37:36;;;;;;;0.10;0.10;;;16.40;69.40;;;15.06;54.12;100552.72;9823417;29;96802;-89
2022/06/14 23:42:38;;;;;;;0.20;0.15;;;16.30;69.10;;;15.00;54.30;100551.63;9823349;29;96826;-88
2022/06/14 23:47:42;;;;;;;0.00;0.00;;;16.30;68.90;;;14.93;53.96;100545.34;9810760;29;96546;-89
2022/06/14 23:52:45;;;;;;;0.13;0.10;;;16.20;68.70;;;14.88;53.60;100547.78;9790789;29;96588;-89
2022/06/14 23:57:48;;;;;;;0.20;0.20;;;16.10;68.00;;;14.85;54.43;100546.28;9821772;29;96665;-89
